Погода Безводичина неделю

Могилёвская область, Белоруссия

21 - 27 мая
  • 21мая
    Сегодня
    +12°
    +25°
    Облачно с прояснениями
    ВремяПогодаТемператураВлажностьДавлениеВетер, м/сВероятность осадков
    00:00Ясно и безоблачно+14°C93 %749 мм2.5 м/с2 %
    03:00Практически безоблачно+12°C93 %750 мм2.6 м/с2 %
    06:00Практически безоблачно+13°C91 %750 мм1.6 м/с2 %
    09:00Ясно и безоблачно+20°C69 %751 мм1.7 м/с2 %
    12:00Ясно и безоблачно+24°C47 %751 мм1.6 м/с2 %
    15:00Облачно с прояснениями+25°C45 %751 мм1.8 м/с3 %
    18:00Небольшая облачность+24°C49 %750 мм0.2 м/с33 %
    21:00Практически безоблачно+19°C73 %751 мм2.9 м/с13 %
  • 22мая
    Среда
    +13°
    +24°
    Пасмурно, дожди с грозами
    ВремяПогодаТемператураВлажностьДавлениеВетер, м/сВероятность осадков
    00:00Практически безоблачно+15°C85 %750 мм2.6 м/с2 %
    03:00Небольшая облачность+13°C91 %751 мм2.1 м/с1 %
    06:00Ясно и безоблачно+13°C90 %751 мм2.5 м/с2 %
    09:00Ясно и безоблачно+20°C72 %751 мм2.9 м/с1 %
    12:00Практически безоблачно+23°C54 %751 мм3.3 м/с13 %
    15:00Пасмурно, дожди с грозами+23°C55 %751 мм2.6 м/с45 %
    18:00Небольшая облачность, ливень+24°C67 %751 мм3.8 м/с69 %
    21:00Ясно и безоблачно+19°C83 %751 мм3.2 м/с7 %
  • 23мая
    Четверг
    +11°
    +24°
    Практически безоблачно
    ВремяПогодаТемператураВлажностьДавлениеВетер, м/сВероятность осадков
    00:00Ясно и безоблачно+15°C93 %752 мм3.1 м/с2 %
    03:00Ясно и безоблачно+14°C95 %752 мм3.3 м/с2 %
    06:00Ясно и безоблачно+14°C92 %753 мм4.2 м/с2 %
    09:00Ясно и безоблачно+18°C69 %754 мм4.7 м/с2 %
    12:00Практически безоблачно+22°C55 %754 мм6.3 м/с21 %
    15:00Практически безоблачно+23°C51 %754 мм5.8 м/с29 %
    18:00Практически безоблачно+23°C53 %754 мм6.1 м/с26 %
    21:00Ясно и безоблачно+19°C60 %755 мм5.1 м/с3 %
  • 24мая
    Пятница
    +9°
    +23°
    Ясно и безоблачно
    ВремяПогодаТемператураВлажностьДавлениеВетер, м/сВероятность осадков
    00:00Ясно и безоблачно+15°C60 %756 мм5.3 м/с2 %
    03:00Практически безоблачно+13°C58 %757 мм4.9 м/с2 %
    06:00Облачно с прояснениями+12°C60 %757 мм5.0 м/с2 %
    09:00Ясно и безоблачно+16°C53 %758 мм5.0 м/с2 %
    12:00Ясно и безоблачно+20°C43 %759 мм5.0 м/с2 %
    15:00Ясно и безоблачно+22°C41 %758 мм4.1 м/с5 %
    18:00Ясно и безоблачно+23°C42 %758 мм4.3 м/с9 %
    21:00Ясно и безоблачно+17°C58 %758 мм3.1 м/с2 %
  • 25мая
    Суббота
    +9°
    +23°
    Ясно и безоблачно
    ВремяПогодаТемператураВлажностьДавлениеВетер, м/сВероятность осадков
    00:00Ясно и безоблачно+13°C61 %758 мм3.4 м/с2 %
    03:00Ясно и безоблачно+11°C66 %758 мм3.2 м/с2 %
    06:00Ясно и безоблачно+11°C68 %759 мм3.1 м/с4 %
    09:00Ясно и безоблачно+17°C54 %759 мм2.9 м/с4 %
    12:00Ясно и безоблачно+21°C36 %759 мм3.3 м/с6 %
    15:00Ясно и безоблачно+23°C35 %758 мм3.0 м/с5 %
    18:00Ясно и безоблачно+23°C38 %757 мм2.5 м/с8 %
    21:00Ясно и безоблачно+17°C68 %756 мм2.6 м/с2 %
Мы используем cookies
Соглашаюсь